Phoenix Sky Harbor International Airport
KPHX : rendu visible

Aérodrome :











RETROUVEZ-NOUS SUR...

 
LOGIN :

S'inscrire | Disclaimer

   EN    FR    IT 

 









Légende :    VFR   VFR Marginal   IFR   IFR Intensif   IFR Très Intensif
Visi : 
Plafond : 
>= 8 km
>= 3000ft
5 à 8 km
1000 à 3000 ft
1500m à 5 km
500 à 1000 ft
800 à 1500m
200 à 500 ft
< 800m
< 200 ft
Symboles :   Orages  Brouillard  Fortes neiges  Fortes précipitations  Vent > 20 kt






- Altitude de l'aérodrome : 1135 ft
- Code IATA : PHX


KPHX - Phoenix Sky Harbor International

DERNIER METAR :
  • 191551Z 11006KT 10SM FEW095 SCT120 BKN250 19/M02 A2985 RMK AO2 SLP097 T01941017

METARs EXPIRÉS :
  • 191451Z 00000KT 10SM BKN120 BKN250 18/M02 A2986 RMK AO2 SLP099 T01781022 53002
  • 191351Z 12003KT 10SM BKN110 BKN250 17/M02 A2985 RMK AO2 SLP097 T01721017

TAF KPHX
Valide du 19 à 15h jusqu'au 20 à 18h UTC


191434Z 1915/2018 12006KT P6SM BKN110 BKN250
FM192100 14012KT P6SM VCSH SCT060 BKN090 OVC250
TEMPO 1921/2001 SHRA BKN050 OVC070
FM200100 17012KT 6SM SHRA SCT030 BKN040 OVC080
FM200700 19015KT P6SM VCSH SCT030 BKN070 OVC150
FM201500 20018G28KT 5SM SHRA BKN025



MET'MAP, la Météo Aéronautique d'un coup d'oeil ! - Copyright ORBIFLY Décembre 2007 - Disclaimer

ORBIFLY MET'MAP TEAM :

Programmation & Développement : Alexandra Zaïnal
Conception & Développement : Baudouin d'Aumeries
Co-Programmation & Développement : Marc-Olivier Méhu
Soutien technique & logistique : Manuel Goepfert

Contact : metmap@orbifly.com




SOURCES & CREDITS :

   NOAA       Earth
Advisory